createdAt,value
2018-03-17T00:01:35.875Z,79.55
2018-03-17T00:04:15.105Z,79.62
2018-03-17T00:06:54.783Z,79.57
2018-03-17T00:09:34.112Z,79.86
2018-03-17T00:12:17.444Z,79.71
2018-03-17T00:14:57.962Z,79.95
2018-03-17T00:17:38.189Z,79.52
2018-03-17T00:20:17.633Z,80.13
2018-03-17T00:22:57.072Z,79.44
2018-03-17T00:25:36.876Z,80.22
2018-03-17T00:28:17.075Z,79.93
2018-03-17T00:30:56.267Z,80.34
2018-03-17T00:33:35.691Z,80.70
2018-03-17T00:36:14.788Z,80.13
2018-03-17T00:38:53.789Z,79.66
2018-03-17T00:41:33.208Z,79.96
2018-03-17T00:44:12.568Z,80.14
2018-03-17T00:46:54.455Z,79.95
2018-03-17T00:49:33.894Z,79.84
2018-03-17T00:52:13.532Z,80.16
2018-03-17T00:54:52.577Z,79.72
2018-03-17T00:57:33.334Z,80.21
2018-03-17T01:00:12.270Z,80.20
2018-03-17T01:02:51.261Z,79.65
2018-03-17T01:05:29.940Z,80.19
2018-03-17T01:08:08.774Z,79.95
2018-03-17T01:10:48.549Z,81.24
2018-03-17T01:13:28.562Z,80.24
2018-03-17T01:16:07.673Z,78.72
2018-03-17T01:18:47.572Z,78.55
2018-03-17T01:21:26.214Z,79.42
2018-03-17T01:24:06.675Z,79.09
2018-03-17T01:26:46.411Z,79.23
2018-03-17T01:29:25.386Z,79.06
2018-03-17T01:32:07.061Z,79.33
2018-03-17T01:34:46.416Z,78.92
2018-03-17T01:37:25.697Z,79.64
2018-03-17T01:40:08.924Z,84.35
2018-03-17T01:42:50.341Z,80.79
2018-03-17T01:45:29.039Z,80.16
2018-03-17T01:48:07.923Z,80.19
2018-03-17T01:50:47.512Z,79.54
2018-03-17T01:53:28.505Z,80.71
2018-03-17T01:56:08.250Z,80.16
2018-03-17T01:58:49.920Z,80.38
2018-03-17T02:01:30.160Z,80.49
2018-03-17T02:04:09.727Z,79.75
2018-03-17T02:06:51.029Z,80.53
2018-03-17T02:09:32.146Z,80.19
2018-03-17T02:12:11.673Z,80.18
2018-03-17T02:14:50.813Z,80.08
2018-03-17T02:17:29.754Z,79.86
2018-03-17T02:20:10.873Z,79.77
2018-03-17T02:22:53.977Z,79.75
2018-03-17T02:25:33.327Z,79.84
2018-03-17T02:28:13.452Z,79.62
2018-03-17T02:30:54.473Z,79.44
2018-03-17T02:33:33.224Z,79.18
2018-03-17T02:36:12.754Z,80.17
2018-03-17T02:38:54.106Z,79.52
2018-03-17T02:41:33.922Z,80.28
2018-03-17T02:44:21.201Z,79.52
2018-03-17T02:47:01.203Z,78.52
2018-03-17T02:49:40.076Z,79.18
2018-03-17T02:52:18.951Z,79.76
2018-03-17T02:54:57.942Z,79.63
2018-03-17T02:57:37.200Z,80.82
2018-03-17T03:00:16.803Z,80.29
2018-03-17T03:02:57.421Z,80.20
2018-03-17T03:05:40.908Z,79.99
2018-03-17T03:08:21.262Z,79.96
2018-03-17T03:11:01.793Z,80.56
2018-03-17T03:13:41.106Z,80.60
2018-03-17T03:16:20.811Z,80.08
2018-03-17T03:19:01.804Z,80.36
2018-03-17T03:21:40.929Z,80.90
2018-03-17T03:24:19.605Z,81.17
2018-03-17T03:26:59.172Z,81.34
2018-03-17T03:29:38.209Z,81.03
2018-03-17T03:32:17.374Z,81.04
2018-03-17T03:34:56.585Z,80.60
2018-03-17T03:37:40.471Z,80.72
2018-03-17T03:40:22.457Z,81.10
2018-03-17T03:43:02.831Z,80.18
2018-03-17T03:45:43.432Z,80.31
2018-03-17T03:48:22.213Z,80.11
2018-03-17T03:51:01.180Z,80.28
2018-03-17T03:53:42.680Z,80.56
2018-03-17T03:56:27.095Z,81.06
2018-03-17T03:59:07.461Z,80.08
2018-03-17T04:01:46.876Z,79.95
2018-03-17T04:04:25.513Z,79.08
2018-03-17T04:07:04.776Z,79.81
2018-03-17T04:09:44.221Z,79.83
2018-03-17T04:12:23.627Z,80.22
2018-03-17T04:15:03.617Z,81.42
2018-03-17T04:17:42.792Z,80.95
2018-03-17T04:20:23.645Z,80.76
2018-03-17T04:23:03.864Z,81.13
2018-03-17T04:25:47.316Z,80.98
2018-03-17T04:28:26.165Z,80.72
2018-03-17T04:31:06.016Z,81.53
2018-03-17T04:33:45.111Z,81.17
2018-03-17T04:36:24.818Z,81.66
2018-03-17T04:39:09.368Z,80.45
2018-03-17T04:41:48.913Z,80.90
2018-03-17T04:44:28.879Z,81.17
2018-03-17T04:47:12.265Z,80.92
2018-03-17T04:49:51.164Z,80.13
2018-03-17T04:52:30.590Z,78.98
2018-03-17T04:55:10.680Z,79.48
2018-03-17T04:57:50.483Z,79.71
2018-03-17T05:00:30.144Z,79.97
2018-03-17T05:03:09.946Z,78.92
2018-03-17T05:05:50.347Z,78.83
2018-03-17T05:08:30.552Z,78.34
2018-03-17T05:11:09.470Z,79.14
2018-03-17T05:13:50.083Z,79.60
2018-03-17T05:16:33.560Z,78.27
2018-03-17T05:19:13.679Z,78.32
2018-03-17T05:21:53.637Z,79.39
2018-03-17T05:24:33.505Z,78.85
2018-03-17T05:27:12.550Z,78.77
2018-03-17T05:29:52.194Z,78.29
2018-03-17T05:32:31.307Z,78.31
2018-03-17T05:35:14.637Z,78.03
2018-03-17T05:37:55.190Z,78.52
2018-03-17T05:40:34.462Z,77.89
2018-03-17T05:43:14.106Z,78.01
2018-03-17T05:45:53.682Z,78.64
2018-03-17T05:48:33.138Z,78.06
2018-03-17T05:51:12.138Z,78.02
2018-03-17T05:53:51.221Z,77.97
2018-03-17T05:56:30.086Z,79.67
2018-03-17T05:59:08.763Z,78.18
2018-03-17T06:01:47.570Z,78.84
2018-03-17T06:04:26.460Z,78.39
2018-03-17T06:07:05.909Z,78.72
2018-03-17T06:09:46.268Z,78.52
2018-03-17T06:12:25.087Z,79.03
2018-03-17T06:15:06.780Z,78.52
2018-03-17T06:17:46.818Z,78.77
2018-03-17T06:20:25.770Z,79.74
2018-03-17T06:23:07.357Z,78.99
2018-03-17T06:25:46.504Z,78.52
2018-03-17T06:28:25.318Z,78.71
2018-03-17T06:31:06.515Z,80.44
2018-03-17T06:33:46.648Z,80.12
2018-03-17T06:36:25.173Z,79.73
2018-03-17T06:39:05.266Z,78.18
2018-03-17T06:41:46.102Z,78.13
2018-03-17T06:44:24.719Z,78.58
2018-03-17T06:47:03.374Z,78.43
2018-03-17T06:49:42.738Z,77.85
2018-03-17T06:52:22.205Z,78.60
2018-03-17T06:55:02.574Z,77.93
2018-03-17T06:57:45.245Z,78.28
2018-03-17T07:00:25.399Z,77.02
2018-03-17T07:03:04.732Z,77.93
2018-03-17T07:05:38.154Z,77.64
2018-03-17T07:08:11.750Z,78.26
2018-03-17T07:10:45.287Z,78.94
2018-03-17T07:13:18.736Z,76.79
2018-03-17T07:15:52.936Z,77.67
2018-03-17T07:18:27.475Z,78.25
2018-03-17T07:21:00.740Z,78.37
2018-03-17T07:23:33.847Z,78.25
2018-03-17T07:26:07.825Z,77.63
2018-03-17T07:28:41.813Z,77.64
2018-03-17T07:33:53.518Z,77.74
2018-03-17T07:36:29.495Z,77.47
2018-03-17T07:39:04.228Z,77.76
2018-03-17T07:41:37.937Z,77.95
2018-03-17T07:44:11.680Z,76.57
2018-03-17T07:46:50.472Z,76.92
2018-03-17T07:49:24.432Z,77.05
2018-03-17T07:51:58.624Z,76.22
2018-03-17T07:54:31.783Z,76.85
2018-03-17T07:57:15.593Z,77.51
2018-03-17T07:59:50.475Z,76.36
2018-03-17T08:02:26.021Z,75.46
2018-03-17T08:05:03.750Z,75.87
2018-03-17T08:07:39.533Z,76.02
2018-03-17T08:10:19.768Z,74.29
2018-03-17T08:13:07.240Z,76.14
2018-03-17T08:15:48.927Z,75.04
2018-03-17T08:18:24.233Z,75.82
2018-03-17T08:20:57.562Z,75.33
2018-03-17T08:23:33.673Z,76.44
2018-03-17T08:26:08.795Z,76.70
2018-03-17T08:28:51.328Z,74.61
2018-03-17T08:31:29.737Z,74.59
2018-03-17T08:34:05.050Z,73.88
2018-03-17T08:36:38.985Z,75.39
2018-03-17T08:39:16.120Z,73.06
2018-03-17T08:41:58.090Z,73.41
2018-03-17T08:44:33.030Z,73.39
2018-03-17T08:47:06.157Z,73.56
2018-03-17T08:49:42.471Z,74.47
2018-03-17T08:52:16.887Z,73.41
2018-03-17T08:54:50.644Z,73.37
2018-03-17T08:57:23.990Z,72.82
2018-03-17T09:00:11.846Z,73.94
2018-03-17T09:03:05.714Z,73.10
2018-03-17T09:12:19.303Z,71.18
2018-03-17T09:15:02.761Z,73.71
2018-03-17T09:17:40.365Z,71.94
2018-03-17T09:20:14.733Z,72.68
2018-03-17T09:22:48.267Z,70.76
2018-03-17T09:25:23.604Z,71.89
2018-03-17T09:28:01.271Z,73.27
2018-03-17T09:30:35.686Z,72.54
2018-03-17T09:33:14.889Z,71.82
2018-03-17T09:35:48.708Z,71.27
2018-03-17T09:38:28.687Z,71.78
2018-03-17T09:41:06.417Z,71.50
2018-03-17T09:43:40.981Z,71.17
2018-03-17T09:46:14.905Z,72.53
2018-03-17T09:48:51.382Z,72.10
2018-03-17T09:51:25.767Z,71.17
2018-03-17T09:53:59.935Z,73.10
2018-03-17T09:56:34.110Z,71.61
2018-03-17T09:59:16.820Z,69.52
2018-03-17T10:01:50.973Z,71.63
2018-03-17T10:04:41.769Z,71.38
2018-03-17T10:07:18.466Z,70.37
2018-03-17T10:09:52.055Z,70.61
2018-03-17T10:12:28.586Z,70.60
2018-03-17T10:17:48.127Z,70.07
2018-03-17T10:20:23.455Z,71.26
2018-03-17T10:23:15.346Z,70.61
2018-03-17T10:25:50.747Z,71.22
2018-03-17T10:28:29.437Z,71.13
2018-03-17T10:31:03.185Z,69.47
2018-03-17T10:33:43.465Z,68.87
2018-03-17T10:36:18.143Z,70.14
2018-03-17T10:38:52.126Z,69.25
2018-03-17T10:41:39.911Z,68.23
2018-03-17T10:44:18.117Z,69.43
2018-03-17T10:46:53.168Z,69.64
2018-03-17T10:49:31.506Z,69.25
2018-03-17T10:52:05.726Z,68.41
2018-03-17T10:54:42.419Z,69.24
2018-03-17T10:57:19.160Z,69.84
2018-03-17T10:59:54.096Z,69.42
2018-03-17T11:02:32.882Z,68.89
2018-03-17T11:05:11.079Z,69.83
2018-03-17T11:07:47.556Z,69.85
2018-03-17T11:10:22.792Z,68.85
2018-03-17T11:12:58.984Z,69.75
2018-03-17T11:15:36.960Z,67.68
2018-03-17T11:18:11.697Z,68.61
2018-03-17T11:20:45.659Z,68.23
2018-03-17T11:23:21.852Z,67.58
2018-03-17T11:25:57.620Z,68.77
2018-03-17T11:28:34.234Z,70.26
2018-03-17T11:31:10.815Z,71.41
2018-03-17T11:33:46.961Z,69.67
2018-03-17T11:36:21.535Z,69.65
2018-03-17T11:38:54.825Z,68.41
2018-03-17T11:41:28.602Z,69.51
2018-03-17T11:44:01.594Z,69.19
2018-03-17T11:46:36.862Z,70.59
2018-03-17T11:49:10.743Z,68.73
2018-03-17T11:51:44.070Z,69.04
2018-03-17T11:54:19.672Z,68.48
2018-03-17T11:56:53.687Z,70.25
2018-03-17T11:59:28.785Z,68.61
2018-03-17T12:02:02.046Z,68.32
2018-03-17T12:04:35.063Z,68.18
2018-03-17T12:10:00.304Z,68.38
2018-03-17T12:12:37.069Z,70.40
2018-03-17T12:15:14.434Z,69.17
2018-03-17T12:17:47.937Z,68.50
2018-03-17T12:20:24.816Z,70.65
2018-03-17T12:23:00.158Z,71.00
2018-03-17T12:25:34.921Z,70.85
2018-03-17T12:28:10.559Z,68.88
2018-03-17T12:30:46.703Z,70.22
2018-03-17T12:33:26.455Z,71.01
2018-03-17T12:36:00.752Z,70.17
2018-03-17T12:41:44.138Z,70.11
2018-03-17T12:44:18.444Z,68.98
2018-03-17T12:46:53.931Z,70.88
2018-03-17T12:49:29.685Z,69.93
2018-03-17T12:52:06.467Z,69.80
2018-03-17T12:54:43.743Z,68.62
2018-03-17T12:57:21.579Z,68.70
2018-03-17T12:59:55.076Z,68.62
2018-03-17T13:02:31.642Z,71.28
2018-03-17T13:05:13.005Z,68.76
2018-03-17T13:07:47.739Z,69.98
2018-03-17T13:10:22.244Z,69.28
2018-03-17T13:13:03.538Z,68.90
2018-03-17T13:15:36.933Z,69.12
2018-03-17T13:18:12.973Z,69.99
2018-03-17T13:20:49.429Z,69.31
2018-03-17T13:23:25.740Z,72.44
2018-03-17T13:25:59.174Z,71.62
2018-03-17T13:28:33.431Z,69.72
2018-03-17T13:31:08.080Z,72.08
2018-03-17T13:33:41.624Z,68.87
2018-03-17T13:38:22.999Z,70.60
2018-03-17T13:40:57.151Z,70.40
2018-03-17T13:43:31.452Z,69.49
2018-03-17T13:46:06.866Z,70.12
2018-03-17T13:48:42.864Z,69.09
2018-03-17T13:51:17.271Z,68.75
2018-03-17T13:53:53.406Z,68.82
2018-03-17T13:56:27.977Z,69.13
2018-03-17T13:59:02.070Z,69.66
2018-03-17T14:01:36.541Z,70.14
2018-03-17T14:04:12.612Z,68.76
2018-03-17T14:06:46.723Z,69.23
2018-03-17T14:09:20.227Z,70.97
2018-03-17T14:11:53.933Z,70.02
2018-03-17T14:14:27.153Z,70.92
2018-03-17T14:17:01.124Z,71.36
2018-03-17T14:19:36.433Z,70.15
2018-03-17T14:22:10.688Z,70.45
2018-03-17T14:24:47.536Z,69.99
2018-03-17T14:27:21.597Z,69.76
2018-03-17T14:29:55.077Z,70.14
2018-03-17T14:32:31.400Z,70.18
2018-03-17T14:35:07.364Z,71.19
2018-03-17T14:37:43.043Z,71.61
2018-03-17T14:40:22.176Z,71.94
2018-03-17T14:42:58.240Z,70.90
2018-03-17T14:45:34.191Z,71.93
2018-03-17T14:48:10.342Z,72.12
2018-03-17T14:50:46.534Z,72.27
2018-03-17T14:53:23.416Z,72.81
2018-03-17T14:55:58.059Z,72.15
2018-03-17T14:58:32.951Z,72.87
2018-03-17T15:01:07.661Z,71.96
2018-03-17T15:03:42.488Z,71.70
2018-03-17T15:06:17.257Z,72.52
2018-03-17T15:08:54.325Z,72.78
2018-03-17T15:11:32.254Z,71.74
2018-03-17T15:14:09.223Z,71.63
2018-03-17T15:16:45.753Z,72.85
2018-03-17T15:19:19.573Z,71.04
2018-03-17T15:21:52.908Z,72.87
2018-03-17T15:24:26.804Z,73.68
2018-03-17T15:27:00.143Z,73.11
2018-03-17T15:29:33.804Z,73.92
2018-03-17T15:32:08.043Z,71.89
2018-03-17T15:34:42.238Z,72.52
2018-03-17T15:37:15.546Z,72.67
2018-03-17T15:39:48.830Z,73.47
2018-03-17T15:42:22.612Z,74.78
2018-03-17T15:44:57.372Z,73.81
2018-03-17T15:47:31.482Z,73.99
2018-03-17T15:50:12.224Z,73.45
2018-03-17T15:52:46.402Z,72.49
2018-03-17T15:58:29.663Z,72.88
2018-03-17T16:01:18.557Z,72.59
2018-03-17T16:03:53.019Z,74.12
2018-03-17T16:06:26.474Z,73.77
2018-03-17T16:08:59.944Z,73.26
2018-03-17T16:11:34.478Z,72.34
2018-03-17T16:14:08.104Z,73.39
2018-03-17T16:16:43.128Z,72.24
2018-03-17T16:19:38.212Z,73.15
2018-03-17T16:22:14.148Z,73.79
2018-03-17T16:24:51.728Z,72.60
2018-03-17T16:27:25.025Z,72.34
2018-03-17T16:29:58.572Z,72.49
2018-03-17T16:32:32.058Z,72.93
2018-03-17T16:35:15.671Z,73.47
2018-03-17T16:37:50.769Z,72.27
2018-03-17T16:40:24.208Z,71.89
2018-03-17T16:43:00.952Z,72.87
2018-03-17T16:45:39.935Z,73.52
2018-03-17T16:48:13.921Z,72.03
2018-03-17T16:50:48.433Z,72.52
2018-03-17T16:53:31.787Z,72.01
2018-03-17T16:56:05.630Z,82.98
2018-03-17T16:58:39.063Z,75.13
2018-03-17T17:01:12.379Z,72.41
2018-03-17T17:06:38.043Z,72.67
2018-03-17T17:09:13.757Z,72.90
2018-03-17T17:11:47.404Z,72.68
2018-03-17T17:14:20.920Z,72.73
2018-03-17T17:16:56.357Z,72.86
2018-03-17T17:19:29.374Z,73.09
2018-03-17T17:22:03.433Z,72.83
2018-03-17T17:24:47.780Z,72.79
2018-03-17T17:27:22.461Z,72.66
2018-03-17T17:29:55.782Z,72.62
2018-03-17T17:32:29.791Z,72.66
2018-03-17T17:35:05.869Z,71.58
2018-03-17T17:37:44.507Z,71.00
2018-03-17T17:40:20.519Z,72.84
2018-03-17T17:42:54.639Z,72.45
2018-03-17T17:45:28.383Z,73.00
2018-03-17T17:48:02.518Z,72.86
2018-03-17T17:50:36.379Z,72.34
2018-03-17T17:55:57.155Z,73.09
2018-03-17T17:58:31.943Z,73.46
2018-03-17T18:01:10.763Z,72.69
2018-03-17T18:03:48.336Z,72.26
2018-03-17T18:06:21.882Z,72.72
2018-03-17T18:08:55.771Z,72.69
2018-03-17T18:11:38.419Z,72.19
2018-03-17T18:14:18.031Z,72.42
2018-03-17T18:16:54.328Z,71.93
2018-03-17T18:19:30.669Z,72.57
2018-03-17T18:22:18.779Z,72.70
2018-03-17T18:24:59.382Z,73.37
2018-03-17T18:27:41.725Z,73.52
2018-03-17T18:30:17.830Z,72.23
2018-03-17T18:32:52.106Z,71.76
2018-03-17T18:35:25.871Z,73.27
2018-03-17T18:37:59.880Z,73.60
2018-03-17T18:40:34.797Z,72.47
2018-03-17T18:43:10.915Z,73.32
2018-03-17T18:45:47.225Z,73.34
2018-03-17T18:48:26.244Z,70.68
2018-03-17T18:51:00.086Z,72.40
2018-03-17T18:53:34.354Z,71.97
2018-03-17T18:56:15.599Z,71.94
2018-03-17T18:58:50.944Z,71.49
2018-03-17T19:01:36.370Z,72.19
2018-03-17T19:04:17.439Z,71.93
2018-03-17T19:06:56.821Z,72.09
2018-03-17T19:09:31.132Z,70.90
2018-03-17T19:14:53.990Z,71.54
2018-03-17T19:20:36.196Z,70.72
2018-03-17T19:23:09.976Z,71.58
2018-03-17T19:25:47.495Z,70.50
2018-03-17T19:31:38.676Z,71.07
2018-03-17T19:34:16.248Z,71.07
2018-03-17T19:36:53.460Z,70.61
2018-03-17T19:39:27.012Z,71.22
2018-03-17T19:42:09.768Z,70.70
2018-03-17T19:44:48.820Z,70.46
2018-03-17T19:47:22.792Z,70.69
2018-03-17T19:50:02.842Z,70.58
2018-03-17T19:52:41.175Z,69.92
2018-03-17T19:55:15.656Z,69.55
2018-03-17T19:57:51.061Z,70.09
2018-03-17T20:00:24.696Z,71.89
2018-03-17T20:02:58.910Z,70.68
2018-03-17T20:05:45.522Z,70.13
2018-03-17T20:08:22.768Z,71.11
2018-03-17T20:10:57.200Z,69.24
2018-03-17T20:13:32.058Z,71.12
2018-03-17T20:16:05.737Z,69.96
2018-03-17T20:18:40.924Z,70.57
2018-03-17T20:21:15.400Z,70.64
2018-03-17T20:23:50.955Z,69.95
2018-03-17T20:26:25.341Z,70.21
2018-03-17T20:28:59.088Z,73.09
2018-03-17T20:31:32.575Z,70.95
2018-03-17T20:34:12.062Z,69.89
2018-03-17T20:36:47.616Z,69.90
2018-03-17T20:39:23.808Z,69.97
2018-03-17T20:42:03.532Z,69.35
2018-03-17T20:44:36.988Z,69.93
2018-03-17T20:47:11.214Z,69.55
2018-03-17T20:49:44.507Z,70.11
2018-03-17T20:52:23.993Z,69.54
2018-03-17T20:55:13.949Z,69.51
2018-03-17T20:57:49.352Z,69.45
2018-03-17T21:00:32.336Z,69.31
2018-03-17T21:03:13.941Z,69.20
2018-03-17T21:05:47.972Z,70.06
2018-03-17T21:08:22.426Z,68.59
2018-03-17T21:10:57.122Z,68.92
2018-03-17T21:13:31.064Z,68.69
2018-03-17T21:16:05.184Z,68.71
2018-03-17T21:18:39.556Z,69.67
2018-03-17T21:21:12.795Z,68.82
2018-03-17T21:23:48.236Z,69.56
2018-03-17T21:26:21.296Z,70.10
2018-03-17T21:28:55.051Z,68.70
2018-03-17T21:31:28.796Z,69.95
2018-03-17T21:34:06.915Z,69.02
2018-03-17T21:36:40.192Z,68.73
2018-03-17T21:39:16.451Z,69.22
2018-03-17T21:41:50.563Z,68.70
2018-03-17T21:44:24.123Z,69.00
2018-03-17T21:53:45.279Z,68.90
2018-03-17T21:56:19.154Z,68.80
2018-03-17T21:58:53.597Z,69.38
2018-03-17T22:01:27.350Z,67.82
2018-03-17T22:04:01.496Z,68.63
2018-03-17T22:06:35.264Z,68.87
2018-03-17T22:09:15.572Z,70.21
2018-03-17T22:11:51.570Z,69.17
2018-03-17T22:14:26.027Z,68.33
2018-03-17T22:16:59.846Z,67.71
2018-03-17T22:19:34.301Z,67.86
2018-03-17T22:22:09.248Z,68.15
2018-03-17T22:24:42.935Z,67.15
2018-03-17T22:27:19.462Z,69.12
2018-03-17T22:30:01.828Z,67.92
2018-03-17T22:32:36.661Z,67.84
2018-03-17T22:35:10.610Z,68.21
2018-03-17T22:40:46.978Z,67.74
2018-03-17T22:43:22.658Z,69.48
2018-03-17T22:45:56.928Z,68.76
2018-03-17T22:48:30.953Z,67.18
2018-03-17T22:51:06.157Z,68.11
2018-03-17T22:53:41.815Z,68.31
2018-03-17T22:56:15.849Z,67.55
2018-03-17T22:58:49.492Z,68.27
2018-03-17T23:04:16.348Z,68.76
2018-03-17T23:07:03.575Z,66.91
2018-03-17T23:09:39.152Z,68.15
2018-03-17T23:12:13.223Z,66.93
2018-03-17T23:14:47.991Z,67.88
2018-03-17T23:17:27.394Z,68.31
2018-03-17T23:20:02.349Z,66.52
2018-03-17T23:22:36.190Z,67.50
2018-03-17T23:25:11.434Z,66.45
2018-03-17T23:27:44.934Z,66.63
2018-03-17T23:30:27.769Z,65.68
2018-03-17T23:33:07.043Z,66.30
2018-03-17T23:35:40.672Z,66.63
2018-03-17T23:38:16.792Z,66.58
2018-03-17T23:40:54.343Z,65.83
2018-03-17T23:43:27.726Z,65.83
2018-03-17T23:46:03.666Z,66.01
2018-03-17T23:48:39.636Z,66.07
2018-03-17T23:51:13.194Z,65.94
2018-03-17T23:53:46.516Z,65.92
2018-03-17T23:56:26.452Z,65.21
2018-03-17T23:59:03.291Z,66.17
